sensor_id;sensor_type;location;lat;lon;timestamp;temperature;humidity
23116;DHT22;11727;52.134;5.052;2022-08-19T00:02:14;19.20;99.90
23116;DHT22;11727;52.134;5.052;2022-08-19T00:04:39;19.20;99.90
23116;DHT22;11727;52.134;5.052;2022-08-19T00:07:06;19.20;99.90
23116;DHT22;11727;52.134;5.052;2022-08-19T00:09:32;19.20;99.90
23116;DHT22;11727;52.134;5.052;2022-08-19T00:11:58;19.20;99.90
23116;DHT22;11727;52.134;5.052;2022-08-19T00:14:27;19.20;99.90
23116;DHT22;11727;52.134;5.052;2022-08-19T00:16:56;19.10;99.90
23116;DHT22;11727;52.134;5.052;2022-08-19T00:19:23;19.10;99.90
23116;DHT22;11727;52.134;5.052;2022-08-19T00:21:49;19.10;99.90
23116;DHT22;11727;52.134;5.052;2022-08-19T00:24:15;19.10;99.90
23116;DHT22;11727;52.134;5.052;2022-08-19T00:26:43;19.10;99.90
23116;DHT22;11727;52.134;5.052;2022-08-19T00:29:11;19.10;99.90
23116;DHT22;11727;52.134;5.052;2022-08-19T00:31:37;19.10;99.90
23116;DHT22;11727;52.134;5.052;2022-08-19T00:34:03;19.10;99.90
23116;DHT22;11727;52.134;5.052;2022-08-19T00:36:29;19.10;99.90
23116;DHT22;11727;52.134;5.052;2022-08-19T00:38:55;19.10;99.90
23116;DHT22;11727;52.134;5.052;2022-08-19T00:41:24;19.00;99.90
23116;DHT22;11727;52.134;5.052;2022-08-19T00:44:10;19.00;99.90
23116;DHT22;11727;52.134;5.052;2022-08-19T00:46:37;19.00;99.90
23116;DHT22;11727;52.134;5.052;2022-08-19T00:49:09;19.00;99.90
23116;DHT22;11727;52.134;5.052;2022-08-19T00:51:37;18.90;99.90
23116;DHT22;11727;52.134;5.052;2022-08-19T00:54:03;19.00;99.90
23116;DHT22;11727;52.134;5.052;2022-08-19T00:56:30;18.90;99.90
23116;DHT22;11727;52.134;5.052;2022-08-19T00:58:58;18.90;99.90
23116;DHT22;11727;52.134;5.052;2022-08-19T01:01:25;18.90;99.90
23116;DHT22;11727;52.134;5.052;2022-08-19T01:03:51;18.90;99.90
23116;DHT22;11727;52.134;5.052;2022-08-19T01:06:16;18.90;99.90
23116;DHT22;11727;52.134;5.052;2022-08-19T01:08:42;18.90;99.90
23116;DHT22;11727;52.134;5.052;2022-08-19T01:11:08;18.90;99.90
23116;DHT22;11727;52.134;5.052;2022-08-19T01:13:34;18.90;99.90
23116;DHT22;11727;52.134;5.052;2022-08-19T01:16:04;18.90;99.90
23116;DHT22;11727;52.134;5.052;2022-08-19T01:18:32;18.90;99.90
23116;DHT22;11727;52.134;5.052;2022-08-19T01:21:02;18.90;99.90
23116;DHT22;11727;52.134;5.052;2022-08-19T01:23:31;18.90;99.90
23116;DHT22;11727;52.134;5.052;2022-08-19T01:26:15;18.80;99.90
23116;DHT22;11727;52.134;5.052;2022-08-19T01:28:45;18.80;99.90
23116;DHT22;11727;52.134;5.052;2022-08-19T01:31:18;18.80;99.90
23116;DHT22;11727;52.134;5.052;2022-08-19T01:33:52;18.80;99.90
23116;DHT22;11727;52.134;5.052;2022-08-19T01:36:31;18.80;99.90
23116;DHT22;11727;52.134;5.052;2022-08-19T01:38:58;18.80;99.90
23116;DHT22;11727;52.134;5.052;2022-08-19T01:41:25;18.80;99.90
23116;DHT22;11727;52.134;5.052;2022-08-19T01:43:53;18.80;99.90
23116;DHT22;11727;52.134;5.052;2022-08-19T01:46:19;18.70;99.90
23116;DHT22;11727;52.134;5.052;2022-08-19T01:48:45;18.70;99.90
23116;DHT22;11727;52.134;5.052;2022-08-19T01:51:12;18.70;99.90
23116;DHT22;11727;52.134;5.052;2022-08-19T01:53:38;18.70;99.90
23116;DHT22;11727;52.134;5.052;2022-08-19T01:56:05;18.70;99.90
23116;DHT22;11727;52.134;5.052;2022-08-19T01:58:35;18.70;99.90
23116;DHT22;11727;52.134;5.052;2022-08-19T02:01:03;18.70;99.90
23116;DHT22;11727;52.134;5.052;2022-08-19T02:03:29;18.70;99.90
23116;DHT22;11727;52.134;5.052;2022-08-19T02:06:00;18.60;99.90
23116;DHT22;11727;52.134;5.052;2022-08-19T02:08:28;18.60;99.90
23116;DHT22;11727;52.134;5.052;2022-08-19T02:10:54;18.60;99.90
23116;DHT22;11727;52.134;5.052;2022-08-19T02:13:20;18.60;99.90
23116;DHT22;11727;52.134;5.052;2022-08-19T02:15:46;18.60;99.90
23116;DHT22;11727;52.134;5.052;2022-08-19T02:18:12;18.60;99.90
23116;DHT22;11727;52.134;5.052;2022-08-19T02:20:38;18.60;99.90
23116;DHT22;11727;52.134;5.052;2022-08-19T02:23:06;18.60;99.90
23116;DHT22;11727;52.134;5.052;2022-08-19T02:25:32;18.60;99.90
23116;DHT22;11727;52.134;5.052;2022-08-19T02:27:57;18.60;99.90
23116;DHT22;11727;52.134;5.052;2022-08-19T02:30:24;18.50;99.90
23116;DHT22;11727;52.134;5.052;2022-08-19T02:32:50;18.50;99.90
23116;DHT22;11727;52.134;5.052;2022-08-19T02:35:16;18.50;99.90
23116;DHT22;11727;52.134;5.052;2022-08-19T02:37:42;18.50;99.90
23116;DHT22;11727;52.134;5.052;2022-08-19T02:40:28;18.50;99.90
23116;DHT22;11727;52.134;5.052;2022-08-19T02:42:54;18.50;99.90
23116;DHT22;11727;52.134;5.052;2022-08-19T02:45:19;18.40;99.90
23116;DHT22;11727;52.134;5.052;2022-08-19T02:47:45;18.50;99.90
23116;DHT22;11727;52.134;5.052;2022-08-19T02:50:11;18.50;99.90
23116;DHT22;11727;52.134;5.052;2022-08-19T02:52:38;18.40;99.90
23116;DHT22;11727;52.134;5.052;2022-08-19T02:55:04;18.40;99.90
23116;DHT22;11727;52.134;5.052;2022-08-19T02:57:31;18.40;99.90
23116;DHT22;11727;52.134;5.052;2022-08-19T02:59:57;18.40;99.90
23116;DHT22;11727;52.134;5.052;2022-08-19T03:02:22;18.40;99.90
23116;DHT22;11727;52.134;5.052;2022-08-19T03:04:48;18.40;99.90
23116;DHT22;11727;52.134;5.052;2022-08-19T03:07:15;18.40;99.90
23116;DHT22;11727;52.134;5.052;2022-08-19T03:09:41;18.30;99.90
23116;DHT22;11727;52.134;5.052;2022-08-19T03:12:08;18.30;99.90
23116;DHT22;11727;52.134;5.052;2022-08-19T03:14:34;18.30;99.90
23116;DHT22;11727;52.134;5.052;2022-08-19T03:17:00;18.30;99.90
23116;DHT22;11727;52.134;5.052;2022-08-19T03:19:27;18.30;99.90
23116;DHT22;11727;52.134;5.052;2022-08-19T03:21:53;18.20;99.90
23116;DHT22;11727;52.134;5.052;2022-08-19T03:24:19;18.30;99.90
23116;DHT22;11727;52.134;5.052;2022-08-19T03:26:53;18.30;99.90
23116;DHT22;11727;52.134;5.052;2022-08-19T03:29:22;18.30;99.90
23116;DHT22;11727;52.134;5.052;2022-08-19T03:31:48;18.30;99.90
23116;DHT22;11727;52.134;5.052;2022-08-19T03:34:23;18.30;99.90
23116;DHT22;11727;52.134;5.052;2022-08-19T03:36:52;18.30;99.90
23116;DHT22;11727;52.134;5.052;2022-08-19T03:39:19;18.30;99.90
23116;DHT22;11727;52.134;5.052;2022-08-19T03:41:46;18.30;99.90
23116;DHT22;11727;52.134;5.052;2022-08-19T03:44:21;18.30;99.90
23116;DHT22;11727;52.134;5.052;2022-08-19T03:46:50;18.20;99.90
23116;DHT22;11727;52.134;5.052;2022-08-19T03:49:17;18.20;99.90
23116;DHT22;11727;52.134;5.052;2022-08-19T03:51:43;18.20;99.90
23116;DHT22;11727;52.134;5.052;2022-08-19T03:54:12;18.20;99.90
23116;DHT22;11727;52.134;5.052;2022-08-19T03:56:39;18.20;99.90
23116;DHT22;11727;52.134;5.052;2022-08-19T03:59:07;18.20;99.90
23116;DHT22;11727;52.134;5.052;2022-08-19T04:01:34;18.20;99.90
23116;DHT22;11727;52.134;5.052;2022-08-19T04:04:00;18.20;99.90
23116;DHT22;11727;52.134;5.052;2022-08-19T04:06:30;18.20;99.90
23116;DHT22;11727;52.134;5.052;2022-08-19T04:08:58;18.20;99.90
23116;DHT22;11727;52.134;5.052;2022-08-19T04:11:39;18.20;99.90
23116;DHT22;11727;52.134;5.052;2022-08-19T04:14:08;18.20;99.90
23116;DHT22;11727;52.134;5.052;2022-08-19T04:16:34;18.20;99.90
23116;DHT22;11727;52.134;5.052;2022-08-19T04:19:02;18.20;99.90
23116;DHT22;11727;52.134;5.052;2022-08-19T04:21:28;18.20;99.90
23116;DHT22;11727;52.134;5.052;2022-08-19T04:23:55;18.20;99.90
23116;DHT22;11727;52.134;5.052;2022-08-19T04:26:27;18.10;99.90
23116;DHT22;11727;52.134;5.052;2022-08-19T04:28:53;18.10;99.90
23116;DHT22;11727;52.134;5.052;2022-08-19T04:31:22;18.10;99.90
23116;DHT22;11727;52.134;5.052;2022-08-19T04:33:48;18.10;99.90
23116;DHT22;11727;52.134;5.052;2022-08-19T04:36:18;18.10;99.90
23116;DHT22;11727;52.134;5.052;2022-08-19T04:38:48;18.10;99.90
23116;DHT22;11727;52.134;5.052;2022-08-19T04:41:15;18.10;99.90
23116;DHT22;11727;52.134;5.052;2022-08-19T04:44:00;18.20;99.90
23116;DHT22;11727;52.134;5.052;2022-08-19T04:46:25;18.10;99.90
23116;DHT22;11727;52.134;5.052;2022-08-19T04:48:51;18.20;99.90
23116;DHT22;11727;52.134;5.052;2022-08-19T04:51:18;18.20;99.90
23116;DHT22;11727;52.134;5.052;2022-08-19T04:53:43;18.20;99.90
23116;DHT22;11727;52.134;5.052;2022-08-19T04:56:15;18.30;99.90
23116;DHT22;11727;52.134;5.052;2022-08-19T04:58:43;18.30;99.90
23116;DHT22;11727;52.134;5.052;2022-08-19T05:01:12;18.30;99.90
23116;DHT22;11727;52.134;5.052;2022-08-19T05:03:38;18.30;99.90
23116;DHT22;11727;52.134;5.052;2022-08-19T05:06:09;18.30;99.90
23116;DHT22;11727;52.134;5.052;2022-08-19T05:08:37;18.40;99.90
23116;DHT22;11727;52.134;5.052;2022-08-19T05:11:16;18.40;99.90
23116;DHT22;11727;52.134;5.052;2022-08-19T05:13:44;18.40;99.90
23116;DHT22;11727;52.134;5.052;2022-08-19T05:16:12;18.40;99.90
23116;DHT22;11727;52.134;5.052;2022-08-19T05:18:38;18.50;99.90
23116;DHT22;11727;52.134;5.052;2022-08-19T05:21:27;18.50;99.90
23116;DHT22;11727;52.134;5.052;2022-08-19T05:24:12;18.50;99.90
23116;DHT22;11727;52.134;5.052;2022-08-19T05:26:42;18.50;99.90
23116;DHT22;11727;52.134;5.052;2022-08-19T05:29:09;18.60;99.90
23116;DHT22;11727;52.134;5.052;2022-08-19T05:31:36;18.60;99.90
23116;DHT22;11727;52.134;5.052;2022-08-19T05:34:04;18.60;99.90
23116;DHT22;11727;52.134;5.052;2022-08-19T05:36:35;18.60;99.90
23116;DHT22;11727;52.134;5.052;2022-08-19T05:39:01;18.60;99.90
23116;DHT22;11727;52.134;5.052;2022-08-19T05:41:27;18.60;99.90
23116;DHT22;11727;52.134;5.052;2022-08-19T05:44:00;18.60;99.90
23116;DHT22;11727;52.134;5.052;2022-08-19T05:46:26;18.60;99.90
23116;DHT22;11727;52.134;5.052;2022-08-19T05:48:51;18.70;99.90
23116;DHT22;11727;52.134;5.052;2022-08-19T05:51:17;18.80;99.90
23116;DHT22;11727;52.134;5.052;2022-08-19T05:53:43;18.70;99.90
23116;DHT22;11727;52.134;5.052;2022-08-19T05:56:13;18.80;99.90
23116;DHT22;11727;52.134;5.052;2022-08-19T05:58:40;18.80;99.90
23116;DHT22;11727;52.134;5.052;2022-08-19T06:01:19;18.90;99.90
23116;DHT22;11727;52.134;5.052;2022-08-19T06:03:45;18.90;99.90
23116;DHT22;11727;52.134;5.052;2022-08-19T06:06:12;18.90;99.90
23116;DHT22;11727;52.134;5.052;2022-08-19T06:08:38;18.90;99.90
23116;DHT22;11727;52.134;5.052;2022-08-19T06:11:32;18.90;99.90
23116;DHT22;11727;52.134;5.052;2022-08-19T06:14:02;18.90;99.90
23116;DHT22;11727;52.134;5.052;2022-08-19T06:16:28;18.90;99.90
23116;DHT22;11727;52.134;5.052;2022-08-19T06:18:55;18.90;99.90
23116;DHT22;11727;52.134;5.052;2022-08-19T06:21:24;19.00;99.90
23116;DHT22;11727;52.134;5.052;2022-08-19T06:23:51;18.90;99.90
23116;DHT22;11727;52.134;5.052;2022-08-19T06:26:18;19.00;99.90
23116;DHT22;11727;52.134;5.052;2022-08-19T06:28:45;19.00;99.90
23116;DHT22;11727;52.134;5.052;2022-08-19T06:31:22;19.00;99.90
23116;DHT22;11727;52.134;5.052;2022-08-19T06:33:49;19.00;99.90
23116;DHT22;11727;52.134;5.052;2022-08-19T06:36:22;19.00;99.90
23116;DHT22;11727;52.134;5.052;2022-08-19T06:38:50;19.00;99.90
23116;DHT22;11727;52.134;5.052;2022-08-19T06:41:16;19.10;99.90
23116;DHT22;11727;52.134;5.052;2022-08-19T06:43:42;19.10;99.90
23116;DHT22;11727;52.134;5.052;2022-08-19T06:46:13;19.20;99.90
23116;DHT22;11727;52.134;5.052;2022-08-19T06:48:40;19.20;99.90
23116;DHT22;11727;52.134;5.052;2022-08-19T06:51:06;19.30;99.90
23116;DHT22;11727;52.134;5.052;2022-08-19T06:53:32;19.30;99.90
23116;DHT22;11727;52.134;5.052;2022-08-19T06:55:58;19.40;99.90
23116;DHT22;11727;52.134;5.052;2022-08-19T06:58:25;19.40;99.90
23116;DHT22;11727;52.134;5.052;2022-08-19T07:00:51;19.40;99.90
23116;DHT22;11727;52.134;5.052;2022-08-19T07:03:17;19.50;99.90
23116;DHT22;11727;52.134;5.052;2022-08-19T07:05:43;19.60;99.90
23116;DHT22;11727;52.134;5.052;2022-08-19T07:08:09;19.60;99.90
23116;DHT22;11727;52.134;5.052;2022-08-19T07:10:35;19.70;99.90
23116;DHT22;11727;52.134;5.052;2022-08-19T07:13:03;19.70;99.90
23116;DHT22;11727;52.134;5.052;2022-08-19T07:15:29;19.70;99.90
23116;DHT22;11727;52.134;5.052;2022-08-19T07:17:56;19.70;99.90
23116;DHT22;11727;52.134;5.052;2022-08-19T07:20:21;19.70;99.90
23116;DHT22;11727;52.134;5.052;2022-08-19T07:22:47;19.70;99.90
23116;DHT22;11727;52.134;5.052;2022-08-19T07:25:13;19.70;99.90
23116;DHT22;11727;52.134;5.052;2022-08-19T07:27:39;19.70;99.90
23116;DHT22;11727;52.134;5.052;2022-08-19T07:30:05;19.80;99.90
23116;DHT22;11727;52.134;5.052;2022-08-19T07:32:34;19.70;99.90
23116;DHT22;11727;52.134;5.052;2022-08-19T07:34:59;19.80;99.90
23116;DHT22;11727;52.134;5.052;2022-08-19T07:37:25;19.80;99.90
23116;DHT22;11727;52.134;5.052;2022-08-19T07:39:53;19.80;99.90
23116;DHT22;11727;52.134;5.052;2022-08-19T07:42:19;19.80;99.90
23116;DHT22;11727;52.134;5.052;2022-08-19T07:44:46;19.90;99.90
23116;DHT22;11727;52.134;5.052;2022-08-19T07:47:12;19.90;99.90
23116;DHT22;11727;52.134;5.052;2022-08-19T07:49:38;20.00;99.90
23116;DHT22;11727;52.134;5.052;2022-08-19T07:52:07;20.10;99.90
23116;DHT22;11727;52.134;5.052;2022-08-19T07:54:37;20.10;99.90
23116;DHT22;11727;52.134;5.052;2022-08-19T07:57:04;20.20;99.90
23116;DHT22;11727;52.134;5.052;2022-08-19T07:59:30;20.30;99.90
23116;DHT22;11727;52.134;5.052;2022-08-19T08:01:57;20.30;99.90
23116;DHT22;11727;52.134;5.052;2022-08-19T08:04:24;20.40;99.90
23116;DHT22;11727;52.134;5.052;2022-08-19T08:07:12;20.40;99.90
23116;DHT22;11727;52.134;5.052;2022-08-19T08:09:56;20.50;99.90
23116;DHT22;11727;52.134;5.052;2022-08-19T08:12:30;20.50;99.90
23116;DHT22;11727;52.134;5.052;2022-08-19T08:14:58;20.60;99.90
23116;DHT22;11727;52.134;5.052;2022-08-19T08:17:26;20.60;99.90
23116;DHT22;11727;52.134;5.052;2022-08-19T08:19:53;20.70;99.90
23116;DHT22;11727;52.134;5.052;2022-08-19T08:22:20;20.70;99.90
23116;DHT22;11727;52.134;5.052;2022-08-19T08:27:36;20.90;99.90
23116;DHT22;11727;52.134;5.052;2022-08-19T08:30:04;21.00;99.90
23116;DHT22;11727;52.134;5.052;2022-08-19T08:32:38;21.00;99.90
23116;DHT22;11727;52.134;5.052;2022-08-19T08:35:06;21.20;99.90
23116;DHT22;11727;52.134;5.052;2022-08-19T08:37:32;21.30;99.90
23116;DHT22;11727;52.134;5.052;2022-08-19T08:39:58;21.40;99.90
23116;DHT22;11727;52.134;5.052;2022-08-19T08:42:28;21.50;99.90
23116;DHT22;11727;52.134;5.052;2022-08-19T08:45:03;21.60;99.90
23116;DHT22;11727;52.134;5.052;2022-08-19T08:47:34;21.60;99.90
23116;DHT22;11727;52.134;5.052;2022-08-19T08:50:07;21.60;99.90
23116;DHT22;11727;52.134;5.052;2022-08-19T08:52:39;21.60;99.90
23116;DHT22;11727;52.134;5.052;2022-08-19T08:55:15;21.70;99.90
23116;DHT22;11727;52.134;5.052;2022-08-19T08:57:49;21.70;99.90
23116;DHT22;11727;52.134;5.052;2022-08-19T09:00:25;21.80;99.90
23116;DHT22;11727;52.134;5.052;2022-08-19T09:02:53;22.00;99.90
23116;DHT22;11727;52.134;5.052;2022-08-19T09:05:20;22.10;99.90
23116;DHT22;11727;52.134;5.052;2022-08-19T09:08:00;22.20;99.90
23116;DHT22;11727;52.134;5.052;2022-08-19T09:10:32;22.20;99.90
23116;DHT22;11727;52.134;5.052;2022-08-19T09:13:08;22.30;99.90
23116;DHT22;11727;52.134;5.052;2022-08-19T09:15:40;22.40;99.90
23116;DHT22;11727;52.134;5.052;2022-08-19T09:18:08;22.50;99.90
23116;DHT22;11727;52.134;5.052;2022-08-19T09:20:34;22.50;99.90
23116;DHT22;11727;52.134;5.052;2022-08-19T09:22:59;22.50;99.90
23116;DHT22;11727;52.134;5.052;2022-08-19T09:25:26;22.50;99.90
23116;DHT22;11727;52.134;5.052;2022-08-19T09:27:53;22.50;99.90
23116;DHT22;11727;52.134;5.052;2022-08-19T09:30:27;22.60;99.90
23116;DHT22;11727;52.134;5.052;2022-08-19T09:32:54;22.70;99.90
23116;DHT22;11727;52.134;5.052;2022-08-19T09:35:22;22.80;99.90
23116;DHT22;11727;52.134;5.052;2022-08-19T09:37:49;22.80;99.90
23116;DHT22;11727;52.134;5.052;2022-08-19T09:40:15;23.00;99.90
23116;DHT22;11727;52.134;5.052;2022-08-19T09:42:42;23.10;99.90
23116;DHT22;11727;52.134;5.052;2022-08-19T09:45:09;23.20;99.90
23116;DHT22;11727;52.134;5.052;2022-08-19T09:47:35;23.30;99.90
23116;DHT22;11727;52.134;5.052;2022-08-19T09:50:07;23.40;99.90
23116;DHT22;11727;52.134;5.052;2022-08-19T09:52:33;23.40;99.90
23116;DHT22;11727;52.134;5.052;2022-08-19T09:55:03;23.30;99.90
23116;DHT22;11727;52.134;5.052;2022-08-19T09:57:29;23.30;99.90
23116;DHT22;11727;52.134;5.052;2022-08-19T09:59:55;23.20;99.90
23116;DHT22;11727;52.134;5.052;2022-08-19T10:02:20;23.40;99.90
23116;DHT22;11727;52.134;5.052;2022-08-19T10:04:46;23.60;99.90
23116;DHT22;11727;52.134;5.052;2022-08-19T10:07:30;23.70;99.90
23116;DHT22;11727;52.134;5.052;2022-08-19T10:09:56;24.00;99.90
23116;DHT22;11727;52.134;5.052;2022-08-19T10:12:21;24.10;99.90
23116;DHT22;11727;52.134;5.052;2022-08-19T10:14:47;24.30;99.90
23116;DHT22;11727;52.134;5.052;2022-08-19T10:17:13;24.40;99.90
23116;DHT22;11727;52.134;5.052;2022-08-19T10:19:40;24.40;99.90
23116;DHT22;11727;52.134;5.052;2022-08-19T10:22:06;24.50;99.90
23116;DHT22;11727;52.134;5.052;2022-08-19T10:24:36;24.60;99.90
23116;DHT22;11727;52.134;5.052;2022-08-19T10:27:01;24.70;99.90
23116;DHT22;11727;52.134;5.052;2022-08-19T10:29:32;24.90;99.90
23116;DHT22;11727;52.134;5.052;2022-08-19T10:32:05;24.90;99.90
23116;DHT22;11727;52.134;5.052;2022-08-19T10:34:35;24.90;99.90
23116;DHT22;11727;52.134;5.052;2022-08-19T10:37:01;24.90;99.90
23116;DHT22;11727;52.134;5.052;2022-08-19T10:39:28;25.10;99.90
23116;DHT22;11727;52.134;5.052;2022-08-19T10:41:55;25.10;99.90
23116;DHT22;11727;52.134;5.052;2022-08-19T10:44:21;25.00;99.90
23116;DHT22;11727;52.134;5.052;2022-08-19T10:46:48;25.00;99.90
23116;DHT22;11727;52.134;5.052;2022-08-19T10:49:14;24.90;99.90
23116;DHT22;11727;52.134;5.052;2022-08-19T10:51:41;24.90;99.90
23116;DHT22;11727;52.134;5.052;2022-08-19T10:54:25;24.90;99.90
23116;DHT22;11727;52.134;5.052;2022-08-19T10:57:10;24.80;99.90
23116;DHT22;11727;52.134;5.052;2022-08-19T10:59:36;24.70;99.90
23116;DHT22;11727;52.134;5.052;2022-08-19T11:02:05;24.70;99.90
23116;DHT22;11727;52.134;5.052;2022-08-19T11:04:31;24.70;99.90
23116;DHT22;11727;52.134;5.052;2022-08-19T11:06:57;24.60;99.90
23116;DHT22;11727;52.134;5.052;2022-08-19T11:09:25;24.60;99.90
23116;DHT22;11727;52.134;5.052;2022-08-19T11:11:52;24.60;99.90
23116;DHT22;11727;52.134;5.052;2022-08-19T11:14:21;24.50;99.90
23116;DHT22;11727;52.134;5.052;2022-08-19T11:16:48;24.40;99.90
23116;DHT22;11727;52.134;5.052;2022-08-19T11:19:14;24.30;99.90
23116;DHT22;11727;52.134;5.052;2022-08-19T11:21:44;24.20;99.90
23116;DHT22;11727;52.134;5.052;2022-08-19T11:24:17;24.20;99.90
23116;DHT22;11727;52.134;5.052;2022-08-19T11:26:44;24.10;99.90
23116;DHT22;11727;52.134;5.052;2022-08-19T11:29:11;24.00;99.90
23116;DHT22;11727;52.134;5.052;2022-08-19T11:31:41;23.90;99.90
23116;DHT22;11727;52.134;5.052;2022-08-19T11:34:10;23.80;99.90
23116;DHT22;11727;52.134;5.052;2022-08-19T11:36:38;23.70;99.90
23116;DHT22;11727;52.134;5.052;2022-08-19T11:39:08;23.50;99.90
23116;DHT22;11727;52.134;5.052;2022-08-19T11:41:34;23.40;99.90
23116;DHT22;11727;52.134;5.052;2022-08-19T11:43:59;23.30;99.90
23116;DHT22;11727;52.134;5.052;2022-08-19T11:46:26;23.20;99.90
23116;DHT22;11727;52.134;5.052;2022-08-19T11:48:55;23.10;99.90
23116;DHT22;11727;52.134;5.052;2022-08-19T11:51:22;23.10;99.90
23116;DHT22;11727;52.134;5.052;2022-08-19T11:53:50;23.00;99.90
23116;DHT22;11727;52.134;5.052;2022-08-19T11:56:16;23.00;99.90
23116;DHT22;11727;52.134;5.052;2022-08-19T11:58:42;23.00;99.90
23116;DHT22;11727;52.134;5.052;2022-08-19T12:01:10;23.00;99.90
23116;DHT22;11727;52.134;5.052;2022-08-19T12:03:41;23.10;99.90
23116;DHT22;11727;52.134;5.052;2022-08-19T12:06:10;23.20;99.90
23116;DHT22;11727;52.134;5.052;2022-08-19T12:08:37;23.30;99.90
23116;DHT22;11727;52.134;5.052;2022-08-19T12:11:04;23.40;99.90
23116;DHT22;11727;52.134;5.052;2022-08-19T12:13:31;23.60;99.90
23116;DHT22;11727;52.134;5.052;2022-08-19T12:15:56;23.60;99.90
23116;DHT22;11727;52.134;5.052;2022-08-19T12:18:23;23.70;99.90
23116;DHT22;11727;52.134;5.052;2022-08-19T12:20:50;23.80;99.90
23116;DHT22;11727;52.134;5.052;2022-08-19T12:23:16;23.80;99.90
23116;DHT22;11727;52.134;5.052;2022-08-19T12:25:47;23.90;99.90
23116;DHT22;11727;52.134;5.052;2022-08-19T12:28:16;23.80;99.90
23116;DHT22;11727;52.134;5.052;2022-08-19T12:30:42;23.90;99.90
23116;DHT22;11727;52.134;5.052;2022-08-19T12:33:08;23.80;99.90
23116;DHT22;11727;52.134;5.052;2022-08-19T12:35:34;23.80;99.90
23116;DHT22;11727;52.134;5.052;2022-08-19T12:37:59;23.70;99.90
23116;DHT22;11727;52.134;5.052;2022-08-19T12:40:26;23.60;99.90
23116;DHT22;11727;52.134;5.052;2022-08-19T12:42:53;23.60;99.90
23116;DHT22;11727;52.134;5.052;2022-08-19T12:45:19;23.50;99.90
23116;DHT22;11727;52.134;5.052;2022-08-19T12:47:44;23.50;99.90
23116;DHT22;11727;52.134;5.052;2022-08-19T12:50:11;23.50;99.90
23116;DHT22;11727;52.134;5.052;2022-08-19T12:52:37;23.40;99.90
23116;DHT22;11727;52.134;5.052;2022-08-19T12:55:05;23.40;99.90
23116;DHT22;11727;52.134;5.052;2022-08-19T12:57:31;23.40;99.90
23116;DHT22;11727;52.134;5.052;2022-08-19T13:00:01;23.40;99.90
23116;DHT22;11727;52.134;5.052;2022-08-19T13:02:26;23.40;99.90
23116;DHT22;11727;52.134;5.052;2022-08-19T13:04:52;23.50;99.90
23116;DHT22;11727;52.134;5.052;2022-08-19T13:07:17;23.50;99.90
23116;DHT22;11727;52.134;5.052;2022-08-19T13:09:43;23.50;99.90
23116;DHT22;11727;52.134;5.052;2022-08-19T13:12:09;23.60;99.90
23116;DHT22;11727;52.134;5.052;2022-08-19T13:14:38;23.60;99.90
23116;DHT22;11727;52.134;5.052;2022-08-19T13:17:05;23.70;99.90
23116;DHT22;11727;52.134;5.052;2022-08-19T13:19:31;23.80;99.90
23116;DHT22;11727;52.134;5.052;2022-08-19T13:21:57;23.90;99.90
23116;DHT22;11727;52.134;5.052;2022-08-19T13:24:23;23.90;99.90
23116;DHT22;11727;52.134;5.052;2022-08-19T13:26:49;24.00;99.90
23116;DHT22;11727;52.134;5.052;2022-08-19T13:29:14;24.00;99.90
23116;DHT22;11727;52.134;5.052;2022-08-19T13:31:58;24.10;99.90
23116;DHT22;11727;52.134;5.052;2022-08-19T13:34:42;24.10;99.90
23116;DHT22;11727;52.134;5.052;2022-08-19T13:37:08;24.00;99.90
23116;DHT22;11727;52.134;5.052;2022-08-19T13:39:35;24.10;99.90
23116;DHT22;11727;52.134;5.052;2022-08-19T13:42:01;24.10;99.90
23116;DHT22;11727;52.134;5.052;2022-08-19T13:44:28;24.10;99.90
23116;DHT22;11727;52.134;5.052;2022-08-19T13:47:01;24.10;99.90
23116;DHT22;11727;52.134;5.052;2022-08-19T13:49:33;24.10;99.90
23116;DHT22;11727;52.134;5.052;2022-08-19T13:51:59;24.20;99.90
23116;DHT22;11727;52.134;5.052;2022-08-19T13:54:24;24.20;99.90
23116;DHT22;11727;52.134;5.052;2022-08-19T13:56:50;24.30;99.90
23116;DHT22;11727;52.134;5.052;2022-08-19T13:59:15;24.30;99.90
23116;DHT22;11727;52.134;5.052;2022-08-19T14:01:45;24.40;99.90
23116;DHT22;11727;52.134;5.052;2022-08-19T14:04:11;24.40;99.90
23116;DHT22;11727;52.134;5.052;2022-08-19T14:06:39;24.40;99.90
23116;DHT22;11727;52.134;5.052;2022-08-19T14:09:05;24.40;99.90
23116;DHT22;11727;52.134;5.052;2022-08-19T14:11:31;24.40;99.90
23116;DHT22;11727;52.134;5.052;2022-08-19T14:13:59;24.30;99.90
23116;DHT22;11727;52.134;5.052;2022-08-19T14:16:25;24.20;99.90
23116;DHT22;11727;52.134;5.052;2022-08-19T14:18:52;24.00;99.90
23116;DHT22;11727;52.134;5.052;2022-08-19T14:21:21;24.00;99.90
23116;DHT22;11727;52.134;5.052;2022-08-19T14:23:47;24.00;99.90
23116;DHT22;11727;52.134;5.052;2022-08-19T14:26:16;24.00;99.90
23116;DHT22;11727;52.134;5.052;2022-08-19T14:28:42;24.00;99.90
23116;DHT22;11727;52.134;5.052;2022-08-19T14:31:10;24.10;99.90
23116;DHT22;11727;52.134;5.052;2022-08-19T14:33:35;24.10;99.90
23116;DHT22;11727;52.134;5.052;2022-08-19T14:36:02;24.10;99.90
23116;DHT22;11727;52.134;5.052;2022-08-19T14:38:30;24.20;99.90
23116;DHT22;11727;52.134;5.052;2022-08-19T14:43:34;24.30;99.90
23116;DHT22;11727;52.134;5.052;2022-08-19T14:45:59;24.40;99.90
23116;DHT22;11727;52.134;5.052;2022-08-19T14:48:25;24.50;99.90
23116;DHT22;11727;52.134;5.052;2022-08-19T14:50:51;24.70;99.90
23116;DHT22;11727;52.134;5.052;2022-08-19T14:53:17;24.80;99.90
23116;DHT22;11727;52.134;5.052;2022-08-19T14:55:44;24.90;99.90
23116;DHT22;11727;52.134;5.052;2022-08-19T14:58:11;24.90;99.90
23116;DHT22;11727;52.134;5.052;2022-08-19T15:00:37;24.80;99.90
23116;DHT22;11727;52.134;5.052;2022-08-19T15:03:02;24.70;99.90
23116;DHT22;11727;52.134;5.052;2022-08-19T15:05:28;24.60;99.90
23116;DHT22;11727;52.134;5.052;2022-08-19T15:07:53;24.50;99.90
23116;DHT22;11727;52.134;5.052;2022-08-19T15:10:21;24.50;99.90
23116;DHT22;11727;52.134;5.052;2022-08-19T15:12:48;24.40;99.90
23116;DHT22;11727;52.134;5.052;2022-08-19T15:15:15;24.30;99.90
23116;DHT22;11727;52.134;5.052;2022-08-19T15:17:43;24.30;99.90
23116;DHT22;11727;52.134;5.052;2022-08-19T15:20:11;24.20;99.90
23116;DHT22;11727;52.134;5.052;2022-08-19T15:22:38;24.10;99.90
23116;DHT22;11727;52.134;5.052;2022-08-19T15:25:06;24.00;99.90
23116;DHT22;11727;52.134;5.052;2022-08-19T15:27:32;24.00;99.90
23116;DHT22;11727;52.134;5.052;2022-08-19T15:29:58;23.90;99.90
23116;DHT22;11727;52.134;5.052;2022-08-19T15:32:24;23.90;99.90
23116;DHT22;11727;52.134;5.052;2022-08-19T15:34:51;23.70;99.90
23116;DHT22;11727;52.134;5.052;2022-08-19T15:37:17;23.60;99.90
23116;DHT22;11727;52.134;5.052;2022-08-19T15:39:42;23.50;99.90
23116;DHT22;11727;52.134;5.052;2022-08-19T15:42:08;23.40;99.90